Time;durP1;ratioP1;P1;durP2;ratioP2;P2;SDS_P1;SDS_P2;PMS_P1;PMS_P2;Temp;Humidity;BMP_temperature;BMP_pressure;BME280_temperature;BME280_humidity;BME280_pressure;Samples;Min_cycle;Max_cycle;Signal;HPM_P1;HPM_P2
2023/05/11 00:01:58;;;;;;;;;;;15.30;90.80;;;15.55;54.76;98494.66;4901918;28;123143;-85
2023/05/11 00:04:24;;;;;;;;;;;15.30;90.80;;;15.56;55.04;98499.09;4898793;28;123732;-84
2023/05/11 00:06:54;;;;;;;;;;;15.30;90.90;;;15.56;54.77;98498.28;4910014;28;119451;-83
2023/05/11 00:09:24;;;;;;;;;;;15.30;90.90;;;15.52;54.67;98487.03;4908972;28;119555;-85
2023/05/11 00:11:52;;;;;;;;;;;15.30;90.90;;;15.52;55.08;98480.66;4906378;28;124205;-84
2023/05/11 00:14:19;;;;;;;;;;;15.30;90.90;;;15.53;55.00;98493.41;4910639;28;123998;-82
2023/05/11 00:16:45;;;;;;;;;;;15.30;91.00;;;15.54;55.15;98489.47;4881381;28;119910;-84
2023/05/11 00:19:11;;;;;;;;;;;15.30;91.00;;;15.55;55.02;98475.19;4902061;28;119621;-84
2023/05/11 00:21:41;;;;;;;;;;;15.30;91.00;;;15.57;55.14;98478.44;4907504;28;124588;-84
2023/05/11 00:24:10;;;;;;;;;;;15.30;91.10;;;15.59;54.94;98481.66;4907914;28;124633;-83
2023/05/11 00:26:43;;;;;;;;;;;15.30;91.10;;;15.60;54.90;98483.28;4906665;28;119528;-81
2023/05/11 00:29:22;;;;;;;;;;;15.30;91.10;;;15.61;55.12;98482.13;4908100;28;119412;-83
2023/05/11 00:31:52;;;;;;;;;;;15.30;91.10;;;15.60;54.97;98482.47;4909502;28;123659;-83
2023/05/11 00:34:21;;;;;;;;;;;15.30;91.20;;;15.60;54.84;98482.47;4907700;28;123648;-84
2023/05/11 00:36:48;;;;;;;;;;;15.30;91.20;;;15.60;55.02;98476.91;4906916;28;119437;-83
2023/05/11 00:39:16;;;;;;;;;;;15.30;91.20;;;15.60;55.05;98483.28;4898843;28;119161;-85
2023/05/11 00:41:44;;;;;;;;;;;15.30;91.20;;;15.59;55.04;98478.88;4908851;28;122819;-86
2023/05/11 00:44:13;;;;;;;;;;;15.30;91.20;;;15.60;55.25;98471.34;4893944;28;122986;-85
2023/05/11 00:46:41;;;;;;;;;;;15.30;91.20;;;15.61;55.09;98486.91;4907744;28;119509;-84
2023/05/11 00:49:09;;;;;;;;;;;15.30;91.20;;;15.60;55.20;98479.69;4907044;28;118632;-85
2023/05/11 00:51:38;;;;;;;;;;;15.30;91.30;;;15.59;55.15;98478.88;4907190;28;124203;-82
2023/05/11 00:54:11;;;;;;;;;;;15.30;91.20;;;15.59;55.14;98473.31;4901768;28;124244;-84
2023/05/11 00:56:40;;;;;;;;;;;15.30;91.30;;;15.58;55.31;98471.72;4894049;28;119593;-84
2023/05/11 00:59:07;;;;;;;;;;;15.30;91.30;;;15.56;55.25;98482.38;4906403;28;118817;-84
2023/05/11 01:01:37;;;;;;;;;;;15.30;91.20;;;15.55;55.40;98474.38;4907298;28;124189;-86
2023/05/11 01:04:25;;;;;;;;;;;15.30;91.30;;;15.51;55.40;98479.03;4908309;28;124094;-82
2023/05/11 01:06:59;;;;;;;;;;;15.20;91.30;;;15.49;55.30;98473.00;4906826;28;120555;-85
2023/05/11 01:09:59;;;;;;;;;;;15.20;91.30;;;15.45;55.27;98481.28;4922593;28;118692;-85
2023/05/11 01:12:59;;;;;;;;;;;15.20;91.30;;;15.39;55.53;98482.66;4919281;28;124738;-84
2023/05/11 01:15:45;;;;;;;;;;;15.20;91.30;;;15.35;55.54;98487.31;4898613;28;123382;-86
2023/05/11 01:18:18;;;;;;;;;;;15.20;91.30;;;15.33;55.75;98481.28;4915412;28;119861;-80
2023/05/11 01:20:48;;;;;;;;;;;15.10;91.30;;;15.31;55.84;98481.63;4916219;28;119229;-83
2023/05/11 01:23:42;;;;;;;;;;;15.10;91.30;;;15.31;55.67;98481.63;4911883;28;123538;-82
2023/05/11 01:26:23;;;;;;;;;;;15.10;91.40;;;15.28;55.83;98476.75;4905433;28;124814;-83
2023/05/11 01:29:12;;;;;;;;;;;15.10;91.40;;;15.25;55.77;98469.94;4914752;28;119635;-84
2023/05/11 01:31:46;;;;;;;;;;;15.10;91.40;;;15.24;55.91;98476.66;4913669;28;118453;-83
2023/05/11 01:34:20;;;;;;;;;;;15.10;91.40;;;15.24;55.92;98476.66;4904862;28;124438;-84
2023/05/11 01:36:51;;;;;;;;;;;15.10;91.40;;;15.24;55.75;98475.88;4901956;28;124539;-83
2023/05/11 01:39:23;;;;;;;;;;;15.10;91.50;;;15.24;55.89;98473.06;4903383;28;119603;-83
2023/05/11 01:41:51;;;;;;;;;;;15.00;91.40;;;15.24;55.88;98470.28;4911548;28;117283;-83
2023/05/11 01:44:18;;;;;;;;;;;15.00;91.50;;;15.27;55.78;98474.34;4908866;28;124362;-83
2023/05/11 01:46:45;;;;;;;;;;;15.00;91.50;;;15.25;55.92;98480.25;4895775;28;123431;-82
2023/05/11 01:49:14;;;;;;;;;;;15.00;91.60;;;15.22;55.79;98478.19;4909711;28;119484;-85
2023/05/11 01:51:41;;;;;;;;;;;15.00;91.50;;;15.19;55.90;98484.44;4895817;28;117652;-84
2023/05/11 01:54:08;;;;;;;;;;;14.90;91.50;;;15.17;55.83;98481.19;4909486;28;124528;-85
2023/05/11 01:56:36;;;;;;;;;;;14.90;91.50;;;15.17;56.04;98478.41;4909873;28;124011;-82
2023/05/11 01:59:03;;;;;;;;;;;14.90;91.60;;;15.18;55.94;98466.94;4900192;28;120353;-81
2023/05/11 02:01:31;;;;;;;;;;;14.90;91.60;;;15.20;56.07;98480.50;4902684;28;120694;-84
2023/05/11 02:03:59;;;;;;;;;;;15.00;91.60;;;15.20;56.01;98474.94;4911799;28;124426;-84
2023/05/11 02:06:28;;;;;;;;;;;14.90;91.60;;;15.19;55.88;98470.53;4909676;28;123551;-84
2023/05/11 02:08:58;;;;;;;;;;;14.90;91.60;;;15.20;55.90;98472.16;4907982;28;119622;-82
2023/05/11 02:11:25;;;;;;;;;;;14.90;91.60;;;15.21;56.05;98471.00;4913104;28;118343;-85
2023/05/11 02:14:03;;;;;;;;;;;15.00;91.70;;;15.23;55.98;98475.06;4912597;28;124243;-85
2023/05/11 02:16:31;;;;;;;;;;;15.00;91.70;;;15.27;56.00;98475.16;4909933;28;124334;-83
2023/05/11 02:18:58;;;;;;;;;;;15.00;91.70;;;15.31;55.96;98481.63;4908730;28;119762;-84
2023/05/11 02:21:26;;;;;;;;;;;15.00;91.70;;;15.32;55.87;98483.25;4909069;28;118554;-83
2023/05/11 02:23:54;;;;;;;;;;;15.00;91.70;;;15.33;55.56;98486.84;4907498;28;124178;-83
2023/05/11 02:26:22;;;;;;;;;;;15.00;92.00;;;15.33;55.84;98482.09;4908126;28;123690;-83
2023/05/11 02:28:48;;;;;;;;;;;15.00;91.70;;;15.33;55.88;98484.88;4901614;28;119555;-83
2023/05/11 02:31:18;;;;;;;;;;;15.00;91.70;;;15.36;55.83;98480.56;4909823;28;118986;-83
2023/05/11 02:33:47;;;;;;;;;;;15.10;91.70;;;15.34;55.42;98486.50;4904600;28;124305;-84
2023/05/11 02:36:21;;;;;;;;;;;15.00;91.60;;;15.33;55.54;98478.50;4896394;28;98249;-84
2023/05/11 02:38:48;;;;;;;;;;;15.00;91.50;;;15.30;55.46;98488.38;4907634;28;119532;-85
2023/05/11 02:41:17;;;;;;;;;;;15.00;91.50;;;15.26;55.51;98476.31;4895159;28;117817;-82
2023/05/11 02:43:48;;;;;;;;;;;15.00;91.50;;;15.24;55.64;98482.22;4902809;28;124194;-86
2023/05/11 02:46:29;;;;;;;;;;;15.00;91.50;;;15.24;55.51;98487.00;4907058;28;123593;-83
2023/05/11 02:49:01;;;;;;;;;;;15.00;91.50;;;15.26;55.79;98484.69;4907411;28;120978;-84
2023/05/11 02:51:36;;;;;;;;;;;15.00;91.50;;;15.27;55.56;98480.72;4906472;28;119674;-84
2023/05/11 02:54:06;;;;;;;;;;;15.00;91.50;;;15.27;55.58;98472.38;4900987;28;124406;-85
2023/05/11 02:56:37;;;;;;;;;;;15.00;91.50;;;15.29;55.70;98478.41;4892921;28;123001;-86
2023/05/11 02:59:05;;;;;;;;;;;15.00;91.50;;;15.30;55.50;98477.22;4908117;28;119417;-83
2023/05/11 03:01:34;;;;;;;;;;;15.00;91.50;;;15.32;55.38;98468.53;4909170;28;118896;-83
2023/05/11 03:04:03;;;;;;;;;;;15.00;91.50;;;15.33;55.54;98470.97;4909367;28;124559;-84
2023/05/11 03:06:32;;;;;;;;;;;15.00;91.50;;;15.34;55.35;98474.53;4908688;28;123768;-85
2023/05/11 03:09:00;;;;;;;;;;;15.00;91.50;;;15.31;55.16;98467.72;4903052;28;119785;-85
2023/05/11 03:11:27;;;;;;;;;;;15.00;91.40;;;15.28;55.39;98468.41;4910617;28;119201;-84
2023/05/11 03:13:55;;;;;;;;;;;15.00;91.40;;;15.27;55.36;98466.81;4906607;28;124098;-85
2023/05/11 03:16:26;;;;;;;;;;;15.00;91.40;;;15.27;55.33;98469.59;4894779;28;124045;-83
2023/05/11 03:18:54;;;;;;;;;;;15.00;91.70;;;15.24;55.55;98461.94;4889994;28;119800;-85
2023/05/11 03:21:23;;;;;;;;;;;15.00;91.40;;;15.23;55.45;98469.50;4898584;28;119281;-85
2023/05/11 03:23:51;;;;;;;;;;;15.00;91.50;;;15.23;55.41;98471.44;4905491;28;124571;-83
2023/05/11 03:26:20;;;;;;;;;;;15.00;91.50;;;15.21;55.72;98459.88;4908407;28;123963;-85
2023/05/11 03:28:50;;;;;;;;;;;14.90;91.50;;;15.20;55.34;98472.94;4905563;28;119395;-83
2023/05/11 03:31:19;;;;;;;;;;;14.90;91.50;;;15.17;55.70;98465.31;4908666;28;118842;-84
2023/05/11 03:33:45;;;;;;;;;;;14.90;91.50;;;15.14;55.72;98460.44;4904893;28;124437;-83
2023/05/11 03:36:12;;;;;;;;;;;14.90;91.50;;;15.09;55.84;98465.44;4911184;28;122857;-84
2023/05/11 03:38:44;;;;;;;;;;;14.90;91.50;;;15.05;55.88;98462.56;4902803;28;120362;-86
2023/05/11 03:41:13;;;;;;;;;;;14.90;91.50;;;15.01;55.94;98468.00;4909094;28;119915;-85
2023/05/11 03:43:42;;;;;;;;;;;14.80;91.50;;;15.00;55.86;98463.59;4911559;28;124428;-84
2023/05/11 03:46:13;;;;;;;;;;;14.80;91.60;;;14.98;55.97;98462.34;4900213;28;122247;-85
2023/05/11 03:48:40;;;;;;;;;;;14.80;91.60;;;14.98;56.10;98462.34;4888945;28;118644;-85
2023/05/11 03:51:10;;;;;;;;;;;14.80;91.70;;;14.95;56.14;98457.47;4899617;28;118589;-85
2023/05/11 03:53:39;;;;;;;;;;;14.70;91.70;;;14.92;56.16;98464.56;4906798;28;123606;-84
2023/05/11 03:56:09;;;;;;;;;;;14.70;91.70;;;14.89;56.51;98458.88;4908058;28;123563;-85
2023/05/11 03:58:39;;;;;;;;;;;14.70;91.80;;;14.86;56.43;98457.59;4901147;28;119702;-85
2023/05/11 04:01:08;;;;;;;;;;;14.60;91.80;;;14.86;56.62;98457.59;4909514;28;117731;-86
2023/05/11 04:03:48;;;;;;;;;;;14.70;91.90;;;14.85;56.59;98455.97;4906105;28;123474;-83
2023/05/11 04:06:16;;;;;;;;;;;14.70;91.90;;;14.82;56.61;98453.91;4903718;28;123649;-85
2023/05/11 04:08:44;;;;;;;;;;;14.70;91.90;;;14.78;56.59;98447.41;4905979;28;119686;-84
2023/05/11 04:11:10;;;;;;;;;;;14.60;91.90;;;14.76;56.80;98447.75;4900306;28;118758;-84
2023/05/11 04:13:40;;;;;;;;;;;14.60;92.00;;;14.75;56.73;98448.94;4907960;28;124149;-86
2023/05/11 04:16:07;;;;;;;;;;;14.60;92.00;;;14.76;56.81;98449.75;4908508;28;124374;-84
2023/05/11 04:18:34;;;;;;;;;;;14.60;92.00;;;14.75;56.85;98446.16;4909880;28;119347;-85
2023/05/11 04:21:05;;;;;;;;;;;14.60;92.10;;;14.76;57.13;98444.16;4901986;28;118864;-83
2023/05/11 04:23:33;;;;;;;;;;;14.60;92.10;;;14.77;56.92;98454.13;4908155;28;124453;-84
2023/05/11 04:26:01;;;;;;;;;;;14.60;92.10;;;14.77;56.96;98452.16;4906369;28;123993;-86
2023/05/11 04:28:28;;;;;;;;;;;14.60;92.20;;;14.79;56.96;98454.59;4907370;28;119677;-87
2023/05/11 04:30:56;;;;;;;;;;;14.60;92.20;;;14.82;57.02;98456.69;4902056;28;119953;-84
2023/05/11 04:33:25;;;;;;;;;;;14.60;92.20;;;14.85;56.89;98452.38;4902946;28;124369;-83
2023/05/11 04:35:53;;;;;;;;;;;14.60;92.20;;;14.87;56.76;98461.19;4906664;28;124354;-85
2023/05/11 04:38:22;;;;;;;;;;;14.60;92.20;;;14.87;56.88;98462.00;4906967;28;119477;-84
2023/05/11 04:40:51;;;;;;;;;;;14.60;92.20;;;14.89;56.82;98459.69;4911438;28;119634;-85
2023/05/11 04:43:17;;;;;;;;;;;14.60;92.20;;;14.89;56.76;98454.13;4901699;28;124004;-84
2023/05/11 04:45:52;;;;;;;;;;;14.60;92.20;;;14.90;56.85;98458.53;4913741;28;123523;-84
2023/05/11 04:48:21;;;;;;;;;;;14.60;92.20;;;14.91;56.75;98462.09;4911792;28;119646;-82
2023/05/11 04:50:50;;;;;;;;;;;14.60;92.20;;;14.91;56.74;98460.16;4911124;28;118609;-83
2023/05/11 04:53:16;;;;;;;;;;;14.60;92.20;;;14.94;56.88;98462.25;4908326;28;123384;-85
2023/05/11 04:55:43;;;;;;;;;;;14.60;92.20;;;14.97;56.86;98471.84;4914644;28;125706;-85
2023/05/11 04:58:09;;;;;;;;;;;14.60;92.20;;;14.97;56.70;98457.94;4916694;28;119159;-84
2023/05/11 05:00:35;;;;;;;;;;;14.60;92.20;;;14.99;57.01;98456.44;4912605;28;119292;-84
2023/05/11 05:03:04;;;;;;;;;;;14.70;92.30;;;15.00;56.62;98460.81;4914280;28;123393;-84
2023/05/11 05:05:31;;;;;;;;;;;14.70;92.30;;;14.97;56.76;98467.09;4915156;28;124816;-83
2023/05/11 05:08:00;;;;;;;;;;;14.70;92.30;;;14.97;56.87;98469.06;4901980;28;117358;-83
2023/05/11 05:10:27;;;;;;;;;;;14.70;92.30;;;14.94;56.64;98467.81;4919021;28;118181;-83
2023/05/11 05:12:53;;;;;;;;;;;14.70;92.30;;;14.94;56.93;98462.25;4910103;28;124074;-85
2023/05/11 05:15:20;;;;;;;;;;;14.70;92.30;;;14.95;56.82;98461.06;4922928;28;122402;-84
2023/05/11 05:17:46;;;;;;;;;;;14.70;92.30;;;14.98;56.83;98465.91;4916776;28;121258;-86
2023/05/11 05:20:12;;;;;;;;;;;14.70;92.30;;;15.01;57.00;98467.19;4912477;28;119576;-83
2023/05/11 05:22:38;;;;;;;;;;;14.70;92.40;;;15.02;57.11;98464.06;4904245;28;124160;-84
2023/05/11 05:25:12;;;;;;;;;;;14.70;92.50;;;15.06;57.07;98471.72;4903702;28;124122;-88
2023/05/11 05:27:38;;;;;;;;;;;14.70;92.50;;;15.07;57.38;98473.31;4911722;28;118673;-87
2023/05/11 05:30:06;;;;;;;;;;;14.70;92.60;;;15.08;56.96;98475.78;4895749;28;118671;-87
2023/05/11 05:32:32;;;;;;;;;;;14.80;92.60;;;15.10;57.26;98481.81;4904892;28;123911;-87
2023/05/11 05:34:59;;;;;;;;;;;14.70;92.60;;;15.13;57.01;98480.31;4909791;28;124317;-87
2023/05/11 05:37:25;;;;;;;;;;;14.80;92.60;;;15.14;56.79;98476.34;4911741;28;119518;-88
2023/05/11 05:39:56;;;;;;;;;;;14.80;92.60;;;15.16;57.00;98468.47;4910635;28;118534;-89
2023/05/11 05:42:23;;;;;;;;;;;14.80;92.50;;;15.17;57.03;98472.84;4905360;28;124494;-89
2023/05/11 05:44:51;;;;;;;;;;;14.80;92.50;;;15.16;56.85;98476.81;4906280;28;123972;-87
2023/05/11 05:47:18;;;;;;;;;;;14.80;92.50;;;15.19;57.04;98473.31;4900706;28;120225;-87
2023/05/11 05:49:45;;;;;;;;;;;14.90;92.50;;;15.21;56.71;98473.78;4902038;28;118650;-88
2023/05/11 05:52:12;;;;;;;;;;;14.90;92.50;;;15.23;56.81;98475.06;4898275;28;124102;-88
2023/05/11 05:54:39;;;;;;;;;;;14.90;92.70;;;15.21;56.81;98484.91;4904230;28;124063;-87
2023/05/11 05:57:05;;;;;;;;;;;15.30;92.60;;;15.17;56.59;98478.41;4892977;28;118659;-88
2023/05/11 05:59:31;;;;;;;;;;;14.90;92.30;;;15.15;56.57;98483.53;4892431;28;118218;-88
2023/05/11 06:01:58;;;;;;;;;;;13.40;91.60;;;15.12;56.48;98485.03;4908032;28;123453;-88
2023/05/11 06:04:24;;;;;;;;;;;14.80;92.20;;;15.10;56.42;98486.53;4908442;28;124305;-88
2023/05/11 06:07:00;;;;;;;;;;;14.80;92.20;;;15.08;56.87;98486.09;4909962;28;119849;-88
2023/05/11 06:09:26;;;;;;;;;;;14.80;92.20;;;15.07;56.72;98490.84;4895613;28;119744;-88
2023/05/11 06:11:53;;;;;;;;;;;14.80;92.20;;;15.10;56.70;98486.53;4894939;28;122441;-88
2023/05/11 06:14:40;;;;;;;;;;;14.90;92.20;;;15.13;56.57;98485.88;4903206;28;123443;-88
2023/05/11 06:17:13;;;;;;;;;;;14.80;92.30;;;15.13;56.64;98494.22;4907907;28;119811;-85
2023/05/11 06:19:41;;;;;;;;;;;14.80;92.60;;;15.14;56.60;98491.06;4889847;28;118756;-87
2023/05/11 06:22:09;;;;;;;;;;;14.90;92.30;;;15.15;56.57;98500.22;4891183;28;123197;-88
2023/05/11 06:24:35;;;;;;;;;;;14.80;92.30;;;15.16;56.40;98490.72;4897614;28;123727;-87
2023/05/11 06:27:07;;;;;;;;;;;14.90;92.30;;;15.17;56.88;98493.13;4907601;28;118878;-89
2023/05/11 06:29:41;;;;;;;;;;;13.90;91.90;;;15.18;56.52;98500.34;4888750;28;118551;-88
2023/05/11 06:32:12;;;;;;;;;;;14.90;92.30;;;15.19;56.59;98492.81;4886637;28;124484;-88
2023/05/11 06:34:38;;;;;;;;;;;14.90;92.30;;;15.18;56.57;98488.41;4888434;28;123312;-88
2023/05/11 06:37:19;;;;;;;;;;;14.80;92.40;;;15.19;56.43;98485.25;4894613;28;119352;-88
2023/05/11 06:39:47;;;;;;;;;;;14.90;92.30;;;15.21;56.63;98493.28;4882883;28;118107;-88
2023/05/11 06:42:13;;;;;;;;;;;14.90;92.40;;;15.23;56.46;98490.91;4912359;28;123961;-88
2023/05/11 06:44:40;;;;;;;;;;;14.90;92.50;;;15.24;56.72;98498.94;4881539;28;122693;-83
2023/05/11 06:47:06;;;;;;;;;;;14.90;92.40;;;15.28;57.02;98498.22;4891695;28;119668;-82
2023/05/11 06:49:35;;;;;;;;;;;14.90;92.50;;;15.33;57.05;98486.84;4893226;28;119358;-82
2023/05/11 06:52:02;;;;;;;;;;;15.00;92.70;;;15.40;57.31;98489.88;4883416;28;124788;-81
2023/05/11 06:54:29;;;;;;;;;;;15.00;92.90;;;15.49;57.25;98489.72;4898997;28;124224;-85
2023/05/11 06:56:56;;;;;;;;;;;15.10;92.90;;;15.56;57.54;98482.38;4904123;28;120232;-81
2023/05/11 06:59:25;;;;;;;;;;;15.10;93.10;;;15.67;57.39;98488.25;4900683;28;120408;-83
2023/05/11 07:01:51;;;;;;;;;;;15.20;93.30;;;15.76;57.16;98480.59;4893556;28;124326;-83
2023/05/11 07:04:18;;;;;;;;;;;15.20;93.30;;;15.82;57.02;98479.16;4901576;28;124016;-88
2023/05/11 07:06:44;;;;;;;;;;;15.30;93.20;;;15.82;56.92;98486.72;4891248;28;119222;-87
2023/05/11 07:09:10;;;;;;;;;;;15.30;93.00;;;15.82;56.75;98483.94;4898371;28;118621;-90
2023/05/11 07:11:37;;;;;;;;;;;15.40;92.90;;;15.79;56.60;98491.00;4897478;28;124289;-88
2023/05/11 07:14:07;;;;;;;;;;;15.30;92.90;;;15.76;56.86;98500.09;4902353;28;123057;-88
2023/05/11 07:16:37;;;;;;;;;;;15.40;92.90;;;15.75;57.04;98501.25;4891682;28;117895;-90
2023/05/11 07:19:09;;;;;;;;;;;16.90;93.90;;;15.74;57.00;98491.25;4897098;28;118821;-89
2023/05/11 07:21:35;;;;;;;;;;;15.40;92.90;;;15.75;56.89;98497.66;4883802;28;123418;-89
2023/05/11 07:24:02;;;;;;;;;;;15.40;92.90;;;15.76;56.88;98488.94;4908342;28;123923;-87
2023/05/11 07:26:29;;;;;;;;;;;15.40;92.90;;;15.78;56.88;98496.97;4907483;28;118600;-88
2023/05/11 07:28:55;;;;;;;;;;;15.40;92.90;;;15.77;57.02;98498.94;4906661;28;119031;-89
2023/05/11 07:31:22;;;;;;;;;;;15.40;92.80;;;15.77;56.96;98498.94;4895574;28;123802;-88
2023/05/11 07:33:50;;;;;;;;;;;15.40;92.90;;;15.80;56.90;98491.84;4898188;28;123535;-88
2023/05/11 07:36:18;;;;;;;;;;;15.40;93.00;;;15.81;56.99;98496.25;4895776;28;117774;-90
2023/05/11 07:38:44;;;;;;;;;;;15.40;93.00;;;15.84;56.93;98498.31;4908464;28;118865;-89
2023/05/11 07:41:11;;;;;;;;;;;15.50;93.00;;;15.85;56.97;98500.75;4920310;28;123634;-89
2023/05/11 07:43:40;;;;;;;;;;;17.00;93.70;;;15.88;57.34;98494.47;4913763;28;124127;-90
2023/05/11 07:46:06;;;;;;;;;;;15.50;93.00;;;15.89;57.23;98501.66;4910497;28;119994;-90
2023/05/11 07:48:33;;;;;;;;;;;15.50;93.10;;;15.91;56.94;98498.53;4889275;28;117915;-90
2023/05/11 07:51:00;;;;;;;;;;;15.60;93.10;;;15.94;57.54;98503.38;4910113;28;123805;-92
2023/05/11 07:53:26;;;;;;;;;;;15.50;93.20;;;15.94;57.32;98508.16;4888044;28;122804;-90
2023/05/11 07:55:53;;;;;;;;;;;15.50;93.50;;;15.93;57.48;98515.66;4923070;28;118630;-89
2023/05/11 07:58:19;;;;;;;;;;;15.50;93.20;;;15.91;57.47;98509.66;4891086;28;117942;-88
2023/05/11 08:00:45;;;;;;;;;;;15.60;93.20;;;15.89;57.65;98507.22;4893466;28;124511;-89
2023/05/11 08:03:12;;;;;;;;;;;15.60;93.20;;;15.92;57.41;98502.13;4906967;28;124033;-89
2023/05/11 08:05:38;;;;;;;;;;;15.60;93.30;;;15.92;57.54;98499.31;4909238;28;118652;-90
2023/05/11 08:08:14;;;;;;;;;;;15.60;93.10;;;15.92;57.21;98489.00;4891737;28;119532;-91
2023/05/11 08:10:43;;;;;;;;;;;15.60;93.20;;;15.95;57.48;98495.84;4894696;28;122788;-88
2023/05/11 08:13:09;;;;;;;;;;;15.60;93.50;;;15.94;57.55;98497.81;4908538;28;123911;-79
2023/05/11 08:15:38;;;;;;;;;;;15.60;93.20;;;15.96;57.58;98500.22;4906235;28;119092;-88
2023/05/11 08:18:05;;;;;;;;;;;14.80;92.90;;;15.95;57.39;98493.84;4908234;28;119233;-90
2023/05/11 08:20:33;;;;;;;;;;;15.60;93.10;;;15.97;57.20;98507.44;4891196;28;123347;-91
2023/05/11 08:23:00;;;;;;;;;;;15.60;93.20;;;15.96;57.37;98503.84;4911185;28;122028;-91
2023/05/11 08:25:29;;;;;;;;;;;15.60;93.20;;;15.97;57.70;98507.44;4891793;28;118732;-91
2023/05/11 08:27:55;;;;;;;;;;;15.60;93.40;;;15.98;57.90;98503.47;4901979;28;118776;-92
2023/05/11 08:30:22;;;;;;;;;;;15.60;93.60;;;15.99;57.80;98496.75;4892588;28;124169;-90
2023/05/11 08:32:50;;;;;;;;;;;15.70;93.40;;;16.00;57.83;98507.53;4892375;28;123384;-91
2023/05/11 08:35:16;;;;;;;;;;;15.70;93.50;;;16.01;57.96;98502.75;4908018;28;119881;-88
2023/05/11 08:37:45;;;;;;;;;;;15.70;93.50;;;16.02;57.77;98504.41;4910801;28;119361;-88
2023/05/11 08:40:12;;;;;;;;;;;15.70;93.40;;;16.03;57.78;98504.03;4910787;28;124246;-87
2023/05/11 08:42:40;;;;;;;;;;;15.70;93.40;;;16.02;57.53;98501.59;4900671;28;123840;-87
2023/05/11 08:45:07;;;;;;;;;;;15.70;93.40;;;16.06;57.67;98502.50;4897195;28;120412;-87
2023/05/11 08:47:34;;;;;;;;;;;15.70;93.40;;;16.05;57.64;98500.91;4904246;28;117778;-91
2023/05/11 08:50:01;;;;;;;;;;;15.70;93.40;;;16.02;57.77;98504.41;4897404;28;124354;-88
2023/05/11 08:52:29;;;;;;;;;;;16.90;93.90;;;15.99;57.73;98496.75;4911789;28;123674;-88
2023/05/11 08:54:55;;;;;;;;;;;15.70;93.40;;;15.99;58.09;98505.91;4896899;28;118661;-88
2023/05/11 08:57:22;;;;;;;;;;;15.70;93.60;;;15.97;58.00;98505.44;4905250;28;119407;-90
2023/05/11 08:59:49;;;;;;;;;;;15.70;93.50;;;15.97;58.59;98505.44;4908739;28;124491;-88
2023/05/11 09:02:19;;;;;;;;;;;15.70;93.80;;;16.00;58.77;98503.94;4901064;28;124441;-88
2023/05/11 09:04:46;;;;;;;;;;;15.70;93.80;;;16.00;58.95;98510.31;4911039;28;119786;-90
2023/05/11 09:07:14;;;;;;;;;;;15.70;93.90;;;15.98;58.59;98497.91;4905652;28;117122;-90
2023/05/11 09:09:41;;;;;;;;;;;15.70;94.00;;;15.93;58.74;98500.94;4907681;28;123527;-83
2023/05/11 09:12:10;;;;;;;;;;;15.70;93.90;;;15.94;58.85;98503.38;4909221;28;122862;-87
2023/05/11 09:14:39;;;;;;;;;;;15.70;93.90;;;15.94;58.42;98502.56;4895783;28;118898;-88
2023/05/11 09:17:07;;;;;;;;;;;15.70;93.90;;;15.95;58.56;98501.41;4911906;28;118080;-89
2023/05/11 09:19:33;;;;;;;;;;;15.70;94.10;;;15.97;58.83;98496.28;4911100;28;124250;-90
2023/05/11 09:22:00;;;;;;;;;;;15.60;94.00;;;15.93;58.83;98504.53;4909512;28;124542;-91
2023/05/11 09:24:26;;;;;;;;;;;15.70;94.00;;;15.93;58.84;98495.38;4900686;28;119687;-87
2023/05/11 09:27:13;;;;;;;;;;;15.70;94.00;;;15.96;58.83;98500.22;4905402;28;118986;-90
2023/05/11 09:29:39;;;;;;;;;;;15.60;94.00;;;15.99;58.67;98502.31;4888192;28;123203;-91
2023/05/11 09:32:06;;;;;;;;;;;15.70;94.00;;;16.01;58.46;98502.75;4897039;28;122073;-92
2023/05/11 09:34:33;;;;;;;;;;;15.70;94.00;;;16.02;58.54;98498.81;4881822;28;118493;-91
2023/05/11 09:37:02;;;;;;;;;;;15.70;93.80;;;16.05;58.42;98507.28;4905279;28;118380;-91
2023/05/11 09:39:35;;;;;;;;;;;15.70;93.80;;;16.09;58.07;98504.56;4911771;28;124420;-91
2023/05/11 09:42:16;;;;;;;;;;;15.80;93.80;;;16.10;58.06;98500.63;4896443;28;123043;-91
2023/05/11 09:44:43;;;;;;;;;;;15.70;93.70;;;16.11;57.83;98507.81;4893364;28;117921;-90
2023/05/11 09:47:11;;;;;;;;;;;15.80;93.70;;;16.12;58.03;98496.31;4903904;28;119131;-91
2023/05/11 09:49:41;;;;;;;;;;;15.80;93.60;;;16.11;57.79;98496.66;4914964;28;123786;-91
2023/05/11 09:52:09;;;;;;;;;;;15.80;93.60;;;16.12;57.52;98506.66;4908677;28;123940;-91
2023/05/11 09:54:43;;;;;;;;;;;15.80;93.50;;;16.14;57.54;98498.75;4894931;28;117688;-92
2023/05/11 09:57:30;;;;;;;;;;;15.80;93.50;;;16.13;57.60;98494.34;4891537;28;117007;-90
2023/05/11 09:59:59;;;;;;;;;;;15.80;93.60;;;16.17;57.59;98500.81;4888585;28;122932;-92
2023/05/11 10:02:28;;;;;;;;;;;15.90;93.60;;;16.21;57.78;98504.53;4900869;28;123000;-91
2023/05/11 10:04:56;;;;;;;;;;;15.90;93.70;;;16.24;57.87;98500.22;4896761;28;119520;-92
2023/05/11 10:07:28;;;;;;;;;;;15.90;93.70;;;16.22;57.93;98492.19;4890011;28;118939;-91
2023/05/11 10:09:57;;;;;;;;;;;15.90;93.90;;;16.19;58.06;98494.88;4930528;28;123124;-89
2023/05/11 10:12:25;;;;;;;;;;;15.90;93.70;;;16.18;58.09;98494.09;4894730;28;123221;-91
2023/05/11 10:15:01;;;;;;;;;;;15.90;93.70;;;16.22;58.05;98496.97;4895786;28;119115;-90
2023/05/11 10:17:48;;;;;;;;;;;15.90;93.70;;;16.18;58.29;98496.06;4885500;28;119351;-88
2023/05/11 10:20:14;;;;;;;;;;;15.90;93.80;;;16.11;58.12;98500.25;4867333;28;125547;-88
2023/05/11 10:22:41;;;;;;;;;;;15.90;93.70;;;16.07;58.15;98495.78;4859152;28;123828;-87
2023/05/11 10:25:08;;;;;;;;;;;14.50;93.10;;;16.06;58.18;98499.72;4885690;28;119497;-89
2023/05/11 10:27:35;;;;;;;;;;;15.50;93.60;;;16.06;58.28;98492.16;4869054;28;118286;-89
2023/05/11 10:30:02;;;;;;;;;;;15.80;93.70;;;16.08;58.01;98492.63;4839491;28;123833;-89
2023/05/11 10:32:31;;;;;;;;;;;15.90;93.80;;;16.13;57.99;98492.38;4866291;28;123969;-91
2023/05/11 10:34:58;;;;;;;;;;;15.90;93.70;;;16.15;57.63;98485.59;4886492;28;119591;-88
2023/05/11 10:37:24;;;;;;;;;;;15.90;93.50;;;16.17;57.63;98489.66;4862049;28;118007;-89
2023/05/11 10:39:51;;;;;;;;;;;15.90;93.60;;;16.16;57.48;98492.81;4847183;28;123346;-90
2023/05/11 10:42:29;;;;;;;;;;;15.90;93.30;;;16.12;56.66;98492.75;4855170;28;123883;-91
2023/05/11 10:45:10;;;;;;;;;;;15.90;93.00;;;16.13;56.60;98488.78;4877739;28;117742;-90
2023/05/11 10:48:13;;;;;;;;;;;15.90;93.00;;;16.11;56.64;98488.31;4864408;28;117047;-90
2023/05/11 10:51:13;;;;;;;;;;;15.90;92.90;;;16.05;56.53;98487.75;4862587;28;124385;-92
2023/05/11 10:53:52;;;;;;;;;;;15.90;92.90;;;16.07;56.79;98479.06;4861346;28;122809;-91
2023/05/11 10:56:38;;;;;;;;;;;15.80;93.00;;;16.11;57.08;98482.72;4855790;28;117791;-90
2023/05/11 10:59:44;;;;;;;;;;;15.90;93.20;;;16.16;57.11;98481.66;4908869;28;118237;-90
2023/05/11 11:02:11;;;;;;;;;;;15.90;93.20;;;16.19;57.14;98480.94;4925439;28;122738;-91
2023/05/11 11:04:51;;;;;;;;;;;15.90;93.30;;;16.24;57.25;98473.13;4892258;28;123306;-91
2023/05/11 11:07:18;;;;;;;;;;;15.90;93.30;;;16.30;57.05;98482.03;4909905;28;117488;-89
2023/05/11 11:10:06;;;;;;;;;;;16.00;93.30;;;16.34;56.79;98482.97;4901973;28;118841;-90
2023/05/11 11:12:33;;;;;;;;;;;16.00;93.10;;;16.35;56.42;98474.22;4898294;28;124222;-90
2023/05/11 11:15:03;;;;;;;;;;;16.00;93.00;;;16.34;56.66;98475.41;4902529;28;123813;-91
2023/05/11 11:17:31;;;;;;;;;;;16.00;93.10;;;16.36;56.97;98469.44;4906457;28;119612;-89
2023/05/11 11:20:00;;;;;;;;;;;16.00;93.10;;;16.34;57.40;98466.22;4907992;28;116939;-91
2023/05/11 11:22:43;;;;;;;;;;;16.00;93.30;;;16.38;57.04;98477.47;4908846;28;124443;-89